Time;durP1;ratioP1;P1;durP2;ratioP2;P2;SDS_P1;SDS_P2;PMS_P1;PMS_P2;Temp;Humidity;BMP_temperature;BMP_pressure;BME280_temperature;BME280_humidity;BME280_pressure;Samples;Min_cycle;Max_cycle;Signal;HPM_P1;HPM_P2
2023/10/08 00:01:03;;;;;;;6.75;3.72;;;18.30;97.60;;;;;;5013350;28;20026;-35
2023/10/08 00:03:29;;;;;;;5.00;3.50;;;18.30;97.60;;;;;;5013211;28;20033;-39
2023/10/08 00:05:55;;;;;;;6.30;3.60;;;18.30;97.60;;;;;;5013542;28;20026;-38
2023/10/08 00:08:21;;;;;;;5.75;3.35;;;18.30;97.60;;;;;;5013209;28;20455;-37
2023/10/08 00:10:47;;;;;;;5.13;3.50;;;18.20;97.50;;;;;;5013143;28;20502;-40
2023/10/08 00:13:15;;;;;;;6.78;4.28;;;18.30;97.50;;;;;;5013127;28;20030;-36
2023/10/08 00:15:55;;;;;;;11.40;5.32;;;18.30;97.50;;;;;;5012945;28;20021;-42
2023/10/08 00:18:22;;;;;;;8.50;5.22;;;18.30;97.50;;;;;;5013082;28;20049;-37
2023/10/08 00:20:55;;;;;;;6.72;3.83;;;18.20;97.50;;;;;;5012883;28;20447;-36
2023/10/08 00:23:25;;;;;;;5.23;3.73;;;18.30;97.50;;;;;;5012873;28;20080;-40
2023/10/08 00:25:54;;;;;;;5.90;3.45;;;18.20;97.50;;;;;;5012748;28;20026;-38
2023/10/08 00:28:21;;;;;;;6.93;3.90;;;18.20;97.50;;;;;;5012910;28;20029;-35
2023/10/08 00:30:47;;;;;;;7.32;4.30;;;18.20;97.50;;;;;;5012832;28;20056;-40
2023/10/08 00:33:14;;;;;;;6.05;3.95;;;18.20;97.50;;;;;;5012795;28;20114;-37
2023/10/08 00:35:41;;;;;;;6.40;4.15;;;18.20;97.50;;;;;;5012565;28;20030;-39
2023/10/08 00:38:14;;;;;;;6.65;3.92;;;18.20;97.50;;;;;;5012738;28;20030;-41
2023/10/08 00:40:45;;;;;;;5.27;3.57;;;18.20;97.50;;;;;;5012715;28;20104;-42
2023/10/08 00:43:31;;;;;;;6.32;4.03;;;18.20;97.40;;;;;;5012824;28;20689;-43
2023/10/08 00:45:59;;;;;;;6.30;4.15;;;18.20;97.40;;;;;;5013073;28;20105;-36
2023/10/08 00:48:28;;;;;;;6.50;3.88;;;18.20;97.30;;;;;;5011891;28;20022;-37
2023/10/08 00:53:43;;;;;;;7.63;4.30;;;18.20;97.40;;;;;;5013358;28;20084;-36
2023/10/08 00:56:18;;;;;;;7.55;3.40;;;18.20;97.30;;;;;;5012290;28;20109;-38
2023/10/08 00:58:51;;;;;;;6.13;3.90;;;18.20;97.30;;;;;;5012472;28;20066;-36
2023/10/08 01:01:20;;;;;;;6.18;3.60;;;18.20;97.30;;;;;;5012354;28;20030;-36
2023/10/08 01:03:47;;;;;;;5.38;3.55;;;18.20;97.30;;;;;;5012312;28;20022;-37
2023/10/08 01:06:17;;;;;;;6.93;3.70;;;18.20;97.30;;;;;;5012072;28;20018;-34
2023/10/08 01:08:51;;;;;;;5.45;3.55;;;18.20;97.30;;;;;;5012281;28;20026;-37
2023/10/08 01:11:45;;;;;;;5.30;3.35;;;18.20;97.30;;;;;;5012611;28;20502;-35
2023/10/08 01:14:10;;;;;;;6.82;3.83;;;18.20;97.30;;;;;;5012159;28;20061;-36
2023/10/08 01:16:36;;;;;;;6.88;3.55;;;18.20;97.30;;;;;;5011876;28;20057;-36
2023/10/08 01:19:02;;;;;;;9.65;3.42;;;18.20;97.30;;;;;;5011932;28;20115;-34
2023/10/08 01:21:34;;;;;;;6.15;3.63;;;18.20;97.30;;;;;;5011941;28;20156;-36
2023/10/08 01:24:02;;;;;;;5.82;3.63;;;18.20;97.30;;;;;;5011935;28;20033;-38
2023/10/08 01:26:31;;;;;;;6.18;3.88;;;18.20;97.30;;;;;;5011758;28;20021;-37
2023/10/08 01:28:57;;;;;;;5.80;3.50;;;18.20;97.30;;;;;;5011775;28;20044;-36
2023/10/08 01:31:23;;;;;;;6.05;3.67;;;18.20;97.30;;;;;;5011823;28;20104;-36
2023/10/08 01:33:56;;;;;;;5.82;3.47;;;18.20;97.30;;;;;;5011919;28;20495;-36
2023/10/08 01:36:25;;;;;;;5.80;3.30;;;18.20;97.30;;;;;;5011678;28;20034;-34
2023/10/08 01:38:51;;;;;;;5.25;3.30;;;18.20;97.30;;;;;;5011682;28;20380;-36
2023/10/08 01:41:28;;;;;;;4.65;3.22;;;18.20;97.70;;;;;;5011717;28;20041;-36
2023/10/08 01:43:54;;;;;;;4.90;3.22;;;18.20;97.30;;;;;;5011673;28;20498;-38
2023/10/08 01:46:21;;;;;;;5.85;3.60;;;18.20;97.30;;;;;;5011394;28;20026;-40
2023/10/08 01:48:49;;;;;;;6.25;3.30;;;18.20;97.30;;;;;;5011508;28;20022;-36
2023/10/08 01:51:24;;;;;;;5.20;3.33;;;18.20;97.30;;;;;;5011600;28;20505;-36
2023/10/08 01:53:57;;;;;;;5.35;3.45;;;18.20;97.70;;;;;;5011681;28;20113;-36
2023/10/08 01:56:24;;;;;;;5.75;3.28;;;18.20;97.30;;;;;;5011395;28;20022;-36
2023/10/08 01:58:49;;;;;;;7.03;3.72;;;18.20;97.30;;;;;;5011665;28;20026;-35
2023/10/08 02:01:20;;;;;;;5.45;3.08;;;18.20;97.30;;;;;;5011428;28;20113;-36
2023/10/08 02:03:45;;;;;;;5.10;3.38;;;18.20;97.40;;;;;;5015010;28;20081;-44
2023/10/08 02:06:12;;;;;;;6.20;3.47;;;18.20;97.30;;;;;;5015893;28;20026;-35
2023/10/08 02:08:38;;;;;;;3.78;2.78;;;18.10;97.30;;;;;;5015593;28;20033;-36
2023/10/08 02:11:03;;;;;;;6.97;3.35;;;18.10;97.30;;;;;;5015521;28;20026;-36
2023/10/08 02:13:30;;;;;;;6.85;3.28;;;18.10;97.30;;;;;;5015412;28;20103;-36
2023/10/08 02:15:56;;;;;;;5.20;3.03;;;18.10;97.30;;;;;;5015194;28;20029;-37
2023/10/08 02:18:25;;;;;;;6.03;3.40;;;18.10;97.30;;;;;;5015282;28;20399;-34
2023/10/08 02:20:51;;;;;;;4.72;2.92;;;18.10;97.30;;;;;;5015175;28;20395;-41
2023/10/08 02:23:18;;;;;;;4.50;2.80;;;18.10;97.30;;;;;;5015167;28;20034;-38
2023/10/08 02:25:44;;;;;;;6.05;3.20;;;18.10;97.30;;;;;;5015488;28;20482;-34
2023/10/08 02:28:12;;;;;;;5.18;3.30;;;18.10;97.30;;;;;;5014981;28;20026;-34
2023/10/08 02:30:39;;;;;;;4.65;3.00;;;18.10;97.30;;;;;;5015071;28;20567;-36
2023/10/08 02:33:13;;;;;;;6.20;3.40;;;18.10;97.30;;;;;;5015085;28;20072;-36
2023/10/08 02:35:42;;;;;;;7.50;3.50;;;18.10;97.70;;;;;;5014977;28;20072;-37
2023/10/08 02:38:09;;;;;;;5.18;3.03;;;18.10;97.30;;;;;;5014970;28;20068;-35
2023/10/08 02:40:37;;;;;;;5.80;2.97;;;18.10;97.40;;;;;;5014889;28;20029;-37
2023/10/08 02:43:06;;;;;;;6.25;3.00;;;18.10;97.40;;;;;;5015069;28;20156;-37
2023/10/08 02:45:31;;;;;;;6.07;3.22;;;18.10;97.40;;;;;;5014859;28;20058;-37
2023/10/08 02:47:57;;;;;;;5.70;3.17;;;18.10;97.40;;;;;;5014638;28;20092;-34
2023/10/08 02:50:23;;;;;;;5.85;3.20;;;18.10;97.40;;;;;;5014764;28;20522;-35
2023/10/08 02:52:52;;;;;;;5.50;3.08;;;18.10;97.40;;;;;;5014764;28;20084;-39
2023/10/08 02:55:36;;;;;;;6.30;2.88;;;18.10;97.40;;;;;;5014504;28;20032;-37
2023/10/08 02:58:02;;;;;;;4.63;2.73;;;18.10;97.40;;;;;;5014664;28;20037;-40
2023/10/08 03:00:34;;;;;;;5.07;3.30;;;18.10;97.40;;;;;;5014575;28;20395;-41
2023/10/08 03:03:02;;;;;;;5.00;3.15;;;18.10;97.40;;;;;;5014547;28;20033;-37
2023/10/08 03:05:35;;;;;;;6.63;3.10;;;18.10;97.40;;;;;;5014388;28;20030;-33
2023/10/08 03:08:02;;;;;;;5.85;3.30;;;18.10;97.40;;;;;;5014379;28;20053;-38
2023/10/08 03:10:33;;;;;;;5.93;3.20;;;18.10;97.40;;;;;;5014476;28;20026;-36
2023/10/08 03:13:06;;;;;;;6.85;3.20;;;18.10;97.40;;;;;;5014381;28;20136;-36
2023/10/08 03:15:46;;;;;;;6.85;3.03;;;18.10;97.40;;;;;;5014194;28;20026;-40
2023/10/08 03:18:16;;;;;;;7.75;2.80;;;18.10;97.40;;;;;;5014092;28;20167;-34
2023/10/08 03:20:42;;;;;;;5.03;2.97;;;18.10;97.40;;;;;;5014095;28;20033;-35
2023/10/08 03:23:22;;;;;;;5.88;3.25;;;18.10;97.40;;;;;;5014070;28;20137;-36
2023/10/08 03:28:41;;;;;;;4.57;2.90;;;18.10;97.40;;;;;;5014413;28;20140;-39
2023/10/08 03:31:14;;;;;;;9.40;3.30;;;18.00;97.30;;;;;;5014013;28;20025;-36
2023/10/08 03:33:40;;;;;;;6.63;3.10;;;18.00;97.30;;;;;;5014002;28;20033;-38
2023/10/08 03:36:29;;;;;;;6.43;3.10;;;18.00;97.30;;;;;;5013718;28;20029;-34
2023/10/08 03:38:57;;;;;;;5.40;2.83;;;18.00;97.30;;;;;;5013832;28;20065;-36
2023/10/08 03:41:32;;;;;;;5.55;2.78;;;18.10;97.40;;;;;;5012534;28;20068;-40
2023/10/08 03:44:12;;;;;;;4.50;2.83;;;18.00;97.30;;;;;;5013809;28;20025;-36
2023/10/08 03:46:46;;;;;;;7.13;3.25;;;18.00;97.30;;;;;;5013677;28;20014;-37
2023/10/08 03:51:48;;;;;;;3.60;2.50;;;18.00;97.30;;;;;;5013872;28;20030;-35
2023/10/08 03:54:17;;;;;;;6.72;3.20;;;18.00;97.40;;;;;;5013597;28;20482;-34
2023/10/08 03:56:48;;;;;;;6.13;3.10;;;18.00;97.40;;;;;;5013358;28;20060;-36
2023/10/08 03:59:30;;;;;;;6.57;3.20;;;18.00;97.40;;;;;;5013403;28;20369;-36
2023/10/08 04:02:08;;;;;;;8.18;3.03;;;18.00;97.40;;;;;;5013345;28;20022;-41
2023/10/08 04:07:39;;;;;;;4.97;3.03;;;18.00;97.40;;;;;;5012554;28;20037;-37
2023/10/08 04:12:52;;;;;;;6.40;3.00;;;18.00;97.40;;;;;;5012004;28;20527;-39
2023/10/08 04:15:20;;;;;;;5.78;3.25;;;18.00;97.40;;;;;;5013143;28;20026;-35
2023/10/08 04:17:50;;;;;;;4.68;2.67;;;18.00;97.40;;;;;;5011736;28;20040;-35
2023/10/08 04:23:03;;;;;;;7.60;2.90;;;18.00;97.40;;;;;;5013010;28;20088;-35
2023/10/08 04:25:30;;;;;;;5.22;2.92;;;18.00;97.40;;;;;;5012464;28;20563;-36
2023/10/08 04:27:59;;;;;;;5.95;3.03;;;18.00;97.40;;;;;;5014397;28;20021;-36
2023/10/08 04:30:33;;;;;;;4.40;2.50;;;18.00;97.40;;;;;;5018576;28;20180;-36
2023/10/08 04:33:12;;;;;;;5.97;2.72;;;18.00;97.40;;;;;;5017457;28;20041;-36
2023/10/08 04:35:51;;;;;;;5.20;2.90;;;18.00;97.40;;;;;;5013032;28;20072;-34
2023/10/08 04:38:21;;;;;;;6.55;3.15;;;18.00;97.40;;;;;;5012752;28;20032;-34
2023/10/08 04:40:48;;;;;;;7.00;3.05;;;18.00;97.40;;;;;;5012716;28;20022;-36
2023/10/08 04:43:25;;;;;;;5.53;3.20;;;18.00;97.40;;;;;;5012613;28;20487;-38
2023/10/08 04:45:56;;;;;;;4.93;3.05;;;18.00;97.40;;;;;;5012421;28;20032;-36
2023/10/08 04:48:32;;;;;;;5.50;3.08;;;18.00;97.40;;;;;;5012560;28;20130;-36
2023/10/08 04:50:58;;;;;;;4.38;2.60;;;17.90;97.40;;;;;;5012725;28;20033;-36
2023/10/08 04:53:32;;;;;;;5.47;2.88;;;17.90;97.40;;;;;;5012549;28;20037;-35
2023/10/08 04:56:13;;;;;;;5.50;3.10;;;18.00;97.40;;;;;;5012246;28;20029;-34
2023/10/08 04:58:46;;;;;;;4.38;3.05;;;17.90;97.40;;;;;;5012335;28;20479;-37
2023/10/08 05:01:38;;;;;;;6.60;2.78;;;18.00;97.40;;;;;;5012492;28;20248;-39
2023/10/08 05:09:38;;;;;;;8.23;3.37;;;17.90;97.40;;;;;;5012240;28;20032;-36
2023/10/08 05:14:34;;;;;;;5.65;2.97;;;17.90;97.40;;;;;;5012235;28;20033;-36
2023/10/08 05:17:09;;;;;;;5.68;2.67;;;17.90;97.40;;;;;;5011947;28;20049;-36
2023/10/08 05:25:35;;;;;;;6.53;3.15;;;17.90;97.40;;;;;;5012063;28;20499;-36
2023/10/08 05:27:56;;;;;;;6.32;3.08;;;17.90;97.40;;;;;;5011677;28;20034;-35
2023/10/08 05:35:49;;;;;;;5.53;2.80;;;17.90;97.40;;;;;;5011684;28;20024;-36
2023/10/08 05:52:25;;;;;;;4.53;2.80;;;17.90;97.70;;;;;;5011788;28;20033;-37
2023/10/08 05:57:24;;;;;;;5.55;2.80;;;17.90;97.40;;;;;;5011776;28;20025;-38
2023/10/08 06:00:16;;;;;;;5.47;3.30;;;17.90;97.40;;;;;;5011728;28;20065;-35
2023/10/08 06:13:29;;;;;;;5.00;2.97;;;17.90;97.40;;;;;;5011483;28;20022;-36
2023/10/08 06:18:28;;;;;;;4.93;2.90;;;17.90;97.40;;;;;;5011342;28;20026;-36
2023/10/08 06:20:58;;;;;;;5.88;2.78;;;17.90;97.50;;;;;;5011303;28;20034;-36
2023/10/08 06:23:25;;;;;;;5.32;2.58;;;17.90;97.50;;;;;;5011335;28;20058;-36
2023/10/08 06:25:58;;;;;;;7.25;2.97;;;17.90;97.50;;;;;;5011019;28;20087;-37
2023/10/08 06:28:25;;;;;;;4.70;2.75;;;17.90;97.50;;;;;;5011316;28;20026;-36
2023/10/08 06:30:56;;;;;;;7.32;2.63;;;17.90;97.50;;;;;;5011305;28;20034;-36
2023/10/08 06:33:33;;;;;;;5.75;2.72;;;17.90;97.50;;;;;;5011319;28;20033;-36
2023/10/08 06:36:02;;;;;;;3.67;2.42;;;17.90;97.50;;;;;;5011039;28;20025;-37
2023/10/08 06:38:32;;;;;;;5.30;2.90;;;17.90;97.50;;;;;;5011139;28;20056;-37
2023/10/08 06:41:24;;;;;;;5.57;2.78;;;17.90;97.50;;;;;;5011166;28;20026;-40
2023/10/08 06:44:02;;;;;;;4.85;2.60;;;17.90;97.50;;;;;;5009908;28;20022;-37
2023/10/08 06:46:30;;;;;;;5.38;2.50;;;17.90;97.50;;;;;;5010909;28;20025;-37
2023/10/08 06:48:56;;;;;;;6.13;3.15;;;17.90;97.50;;;;;;5011660;28;20018;-39
2023/10/08 06:51:25;;;;;;;6.72;3.08;;;17.90;97.50;;;;;;5014760;28;20025;-37
2023/10/08 06:53:51;;;;;;;6.50;2.70;;;17.90;97.50;;;;;;5014748;28;20026;-39
2023/10/08 06:56:19;;;;;;;4.82;2.70;;;17.90;97.80;;;;;;5014532;28;20029;-39
2023/10/08 06:58:47;;;;;;;5.93;2.70;;;18.00;97.50;;;;;;5014623;28;20029;-37
2023/10/08 07:01:13;;;;;;;4.32;2.45;;;18.00;97.50;;;;;;5014451;28;20026;-36
2023/10/08 07:03:39;;;;;;;3.88;2.38;;;18.00;97.50;;;;;;5014550;28;20021;-37
2023/10/08 07:06:16;;;;;;;6.53;3.15;;;18.00;97.50;;;;;;5014434;28;20498;-35
2023/10/08 07:08:46;;;;;;;6.28;3.08;;;18.00;97.50;;;;;;5014572;28;20476;-34
2023/10/08 07:11:12;;;;;;;5.45;2.53;;;18.00;97.50;;;;;;5014388;28;20037;-35
2023/10/08 07:13:40;;;;;;;5.30;2.92;;;18.00;97.50;;;;;;5014236;28;20030;-35
2023/10/08 07:16:08;;;;;;;5.30;2.80;;;18.00;97.40;;;;;;5014111;28;20030;-36
2023/10/08 07:18:33;;;;;;;5.50;3.05;;;18.00;97.40;;;;;;5014180;28;20034;-37
2023/10/08 07:21:11;;;;;;;5.35;2.80;;;18.00;97.40;;;;;;5014157;28;20044;-36
2023/10/08 07:23:53;;;;;;;5.75;3.03;;;18.00;97.40;;;;;;5014235;28;20053;-36
2023/10/08 07:26:23;;;;;;;5.13;2.80;;;18.00;97.40;;;;;;5014275;28;20506;-36
2023/10/08 07:28:51;;;;;;;4.38;2.50;;;18.00;97.40;;;;;;5014084;28;20105;-36
2023/10/08 07:31:22;;;;;;;4.40;2.58;;;18.00;97.40;;;;;;5014142;28;20056;-36
2023/10/08 07:33:56;;;;;;;5.97;2.50;;;18.00;97.40;;;;;;5014193;28;20014;-36
2023/10/08 07:36:30;;;;;;;5.22;2.65;;;18.00;97.40;;;;;;5014300;28;20026;-35
2023/10/08 07:38:56;;;;;;;3.70;2.30;;;18.10;97.40;;;;;;5012614;28;20058;-35
2023/10/08 07:41:22;;;;;;;7.18;3.10;;;18.10;97.40;;;;;;5013856;28;20061;-36
2023/10/08 07:43:55;;;;;;;3.85;2.63;;;18.10;97.40;;;;;;5014311;28;20025;-35
2023/10/08 07:46:22;;;;;;;4.20;2.85;;;18.10;97.40;;;;;;5013512;28;20041;-39
2023/10/08 07:48:50;;;;;;;4.00;2.45;;;18.10;97.40;;;;;;5013696;28;20029;-40
2023/10/08 07:51:17;;;;;;;4.47;2.50;;;18.10;97.40;;;;;;5014057;28;20021;-40
2023/10/08 07:53:43;;;;;;;4.45;2.53;;;18.10;97.40;;;;;;5013607;28;20492;-41
2023/10/08 07:56:08;;;;;;;5.93;2.45;;;18.10;97.40;;;;;;5013363;28;20061;-37
2023/10/08 07:58:38;;;;;;;4.35;2.70;;;18.20;97.40;;;;;;5013726;28;20026;-39
2023/10/08 08:01:06;;;;;;;5.43;2.78;;;18.20;97.40;;;;;;5012353;28;20381;-36
2023/10/08 08:03:38;;;;;;;4.57;2.33;;;18.20;97.40;;;;;;5016579;28;20376;-36
2023/10/08 08:06:09;;;;;;;4.22;2.35;;;18.20;97.30;;;;;;5015128;28;20025;-37
2023/10/08 08:08:36;;;;;;;3.53;2.22;;;18.20;97.40;;;;;;5014175;28;20022;-36
2023/10/08 08:11:12;;;;;;;4.25;2.38;;;18.20;97.30;;;;;;5015492;28;20065;-36
2023/10/08 08:13:44;;;;;;;3.60;2.30;;;18.20;97.30;;;;;;5015463;28;20034;-34
2023/10/08 08:16:17;;;;;;;4.38;2.50;;;18.20;97.30;;;;;;5012952;28;20156;-34
2023/10/08 08:18:59;;;;;;;4.63;2.50;;;18.20;97.70;;;;;;5013131;28;20030;-34
2023/10/08 08:21:25;;;;;;;4.95;2.75;;;18.20;97.40;;;;;;5013111;28;20041;-34
2023/10/08 08:23:52;;;;;;;5.63;2.90;;;18.20;97.40;;;;;;5013060;28;20108;-36
2023/10/08 08:26:28;;;;;;;4.47;2.80;;;18.20;97.70;;;;;;5012902;28;20022;-36
2023/10/08 08:28:59;;;;;;;4.05;2.22;;;18.20;97.40;;;;;;5013154;28;20014;-36
2023/10/08 08:31:26;;;;;;;3.70;2.28;;;18.20;97.40;;;;;;5012920;28;20041;-37
2023/10/08 08:33:53;;;;;;;3.92;2.17;;;18.20;97.40;;;;;;5012968;28;20159;-36
2023/10/08 08:36:22;;;;;;;3.38;2.30;;;18.20;97.40;;;;;;5012927;28;20029;-35
2023/10/08 08:38:48;;;;;;;4.43;2.63;;;18.20;97.40;;;;;;5013605;28;20030;-37
2023/10/08 08:41:17;;;;;;;4.38;2.53;;;18.20;97.40;;;;;;5013715;28;20048;-36
2023/10/08 08:43:48;;;;;;;3.75;2.33;;;18.20;97.40;;;;;;5014109;28;20487;-35
2023/10/08 08:46:15;;;;;;;5.25;2.70;;;18.30;97.80;;;;;;5012525;28;20089;-35
2023/10/08 08:48:42;;;;;;;4.47;2.70;;;18.30;97.80;;;;;;5013521;28;20030;-35
2023/10/08 08:51:09;;;;;;;3.65;2.40;;;18.30;97.50;;;;;;5012510;28;20028;-36
2023/10/08 08:53:38;;;;;;;3.30;2.40;;;18.30;97.50;;;;;;5012416;28;20092;-35
2023/10/08 08:56:09;;;;;;;3.85;2.17;;;18.30;97.50;;;;;;5012371;28;20022;-35
2023/10/08 08:58:36;;;;;;;4.22;2.30;;;18.30;97.50;;;;;;5013191;28;20034;-36
2023/10/08 09:01:05;;;;;;;3.42;2.03;;;18.30;97.50;;;;;;5013487;28;20096;-35
2023/10/08 09:03:30;;;;;;;5.97;2.67;;;18.40;97.50;;;;;;5012387;28;20075;-35
2023/10/08 09:05:59;;;;;;;4.32;2.35;;;18.40;97.50;;;;;;5012025;28;20054;-36
2023/10/08 09:08:33;;;;;;;4.40;2.47;;;18.40;97.50;;;;;;5012219;28;20380;-36
2023/10/08 09:11:04;;;;;;;4.57;2.60;;;18.40;97.50;;;;;;5012128;28;20014;-36
2023/10/08 09:13:31;;;;;;;4.07;2.42;;;18.40;97.50;;;;;;5012350;28;20100;-36
2023/10/08 09:16:14;;;;;;;4.50;2.22;;;18.40;97.60;;;;;;5012357;28;20032;-34
2023/10/08 09:18:46;;;;;;;5.10;2.35;;;18.40;97.50;;;;;;5012862;28;20029;-34
2023/10/08 09:21:15;;;;;;;3.63;2.15;;;18.40;97.50;;;;;;5012731;28;20040;-38
2023/10/08 09:23:47;;;;;;;3.00;2.10;;;18.40;97.60;;;;;;5012087;28;20495;-37
2023/10/08 09:26:14;;;;;;;5.45;2.30;;;18.50;97.90;;;;;;5011832;28;20116;-38
2023/10/08 09:28:46;;;;;;;4.30;2.55;;;18.50;97.60;;;;;;5011911;28;20472;-38
2023/10/08 09:31:12;;;;;;;3.92;2.30;;;18.50;97.60;;;;;;5011750;28;20072;-37
2023/10/08 09:33:39;;;;;;;3.92;2.28;;;18.50;97.60;;;;;;5010805;28;20391;-34
2023/10/08 09:36:05;;;;;;;3.65;2.30;;;18.50;97.60;;;;;;5011781;28;20384;-36
2023/10/08 09:38:33;;;;;;;5.32;2.22;;;18.50;97.60;;;;;;5011874;28;20034;-36
2023/10/08 09:41:02;;;;;;;4.05;2.38;;;18.60;97.60;;;;;;5011848;28;20022;-36
2023/10/08 09:43:29;;;;;;;3.33;2.13;;;18.60;97.60;;;;;;5011637;28;20550;-36
2023/10/08 09:46:15;;;;;;;3.65;2.15;;;18.60;97.60;;;;;;5011547;28;20030;-37
2023/10/08 09:48:44;;;;;;;4.57;2.40;;;18.60;97.60;;;;;;5012657;28;20030;-37
2023/10/08 09:51:12;;;;;;;6.28;2.17;;;18.60;97.60;;;;;;5011607;28;20014;-37
2023/10/08 09:53:49;;;;;;;5.57;2.65;;;18.60;97.60;;;;;;5011652;28;20514;-37
2023/10/08 09:56:18;;;;;;;3.78;2.30;;;18.60;97.60;;;;;;5011365;28;20034;-37
2023/10/08 09:58:44;;;;;;;3.78;2.38;;;18.70;97.60;;;;;;5011460;28;20528;-36
2023/10/08 10:01:10;;;;;;;4.30;2.30;;;18.70;97.60;;;;;;5011485;28;20045;-38
2023/10/08 10:03:37;;;;;;;4.20;2.53;;;18.70;97.60;;;;;;5011543;28;20542;-37
2023/10/08 10:06:02;;;;;;;5.60;2.60;;;18.60;97.60;;;;;;5011378;28;20022;-38
2023/10/08 10:08:35;;;;;;;3.92;2.10;;;18.70;97.70;;;;;;5011382;28;20022;-37
2023/10/08 10:11:01;;;;;;;3.25;2.17;;;18.70;97.70;;;;;;5011383;28;20614;-37
2023/10/08 10:13:46;;;;;;;3.72;2.55;;;18.60;97.70;;;;;;5011738;28;20369;-38
2023/10/08 10:16:13;;;;;;;4.22;2.25;;;18.70;97.70;;;;;;5011186;28;20439;-36
2023/10/08 10:18:39;;;;;;;3.45;2.08;;;18.60;97.70;;;;;;5011268;28;20099;-37
2023/10/08 10:21:13;;;;;;;4.43;2.33;;;18.60;97.70;;;;;;5011165;28;20124;-34
2023/10/08 10:23:42;;;;;;;3.78;2.20;;;18.70;97.70;;;;;;5012849;28;20026;-35
2023/10/08 10:26:31;;;;;;;4.68;2.10;;;18.70;97.70;;;;;;5015164;28;20503;-36
2023/10/08 10:29:14;;;;;;;5.07;2.35;;;18.70;97.70;;;;;;5015260;28;20472;-34
2023/10/08 10:31:50;;;;;;;4.20;2.40;;;18.70;97.80;;;;;;5015098;28;20499;-34
2023/10/08 10:34:20;;;;;;;3.35;2.17;;;18.60;97.70;;;;;;5015079;28;20026;-34
2023/10/08 10:36:55;;;;;;;4.38;2.30;;;18.70;97.80;;;;;;5014928;28;20057;-35
2023/10/08 10:39:27;;;;;;;5.15;2.47;;;18.70;97.80;;;;;;5014989;28;20414;-35
2023/10/08 10:42:06;;;;;;;6.15;2.38;;;18.70;97.80;;;;;;5014826;28;20538;-35
2023/10/08 10:44:33;;;;;;;4.40;2.53;;;18.70;97.80;;;;;;5015005;28;20112;-35
2023/10/08 10:50:31;;;;;;;4.18;2.28;;;18.70;97.80;;;;;;5014906;28;20026;-36
2023/10/08 10:52:31;;;;;;;5.13;2.58;;;18.80;97.80;;;;;;5010621;28;20030;-36
2023/10/08 10:57:42;;;;;;;3.77;2.23;;;18.80;97.80;;;;;;5014821;28;20504;-34
2023/10/08 11:02:59;;;;;;;4.25;2.47;;;18.80;97.80;;;;;;5014676;28;20109;-38
2023/10/08 11:05:37;;;;;;;5.65;2.00;;;18.80;97.90;;;;;;5014701;28;20030;-37
2023/10/08 11:08:06;;;;;;;3.83;2.28;;;18.90;97.90;;;;;;5014398;28;20433;-41
2023/10/08 11:10:51;;;;;;;4.65;2.13;;;18.90;97.90;;;;;;5014393;28;20018;-37
2023/10/08 11:13:28;;;;;;;6.32;2.22;;;18.90;97.90;;;;;;5014262;28;20095;-39
2023/10/08 11:15:54;;;;;;;5.10;2.47;;;18.80;97.60;;;;;;5014148;28;20466;-36
2023/10/08 11:18:22;;;;;;;4.22;2.47;;;18.90;97.90;;;;;;5014174;28;20049;-36
2023/10/08 11:20:54;;;;;;;6.68;2.53;;;18.90;98.30;;;;;;5014155;28;20558;-36
2023/10/08 11:23:46;;;;;;;6.80;2.72;;;18.90;97.90;;;;;;5014681;28;20053;-37
2023/10/08 11:26:15;;;;;;;4.95;2.15;;;18.90;98.00;;;;;;5013387;28;20022;-35
2023/10/08 11:28:41;;;;;;;6.03;2.30;;;18.90;98.00;;;;;;5014030;28;20526;-37
2023/10/08 11:31:13;;;;;;;6.50;2.33;;;19.00;98.00;;;;;;5014422;28;20411;-43
2023/10/08 11:33:53;;;;;;;6.10;2.85;;;19.00;98.00;;;;;;5014071;28;20029;-39
2023/10/08 11:36:24;;;;;;;5.95;2.88;;;19.00;98.00;;;;;;5013497;28;20038;-37
2023/10/08 11:38:53;;;;;;;6.70;2.35;;;19.00;98.00;;;;;;5017678;28;20037;-37
2023/10/08 11:41:22;;;;;;;7.90;2.63;;;19.00;98.30;;;;;;5015666;28;20072;-36
2023/10/08 11:43:53;;;;;;;8.77;2.88;;;19.00;98.00;;;;;;5014057;28;20050;-36
2023/10/08 11:46:32;;;;;;;5.65;2.72;;;19.00;98.00;;;;;;5013808;28;20030;-36
2023/10/08 11:49:04;;;;;;;6.18;2.50;;;19.00;98.00;;;;;;5013789;28;20358;-34
2023/10/08 11:51:40;;;;;;;6.97;2.60;;;19.10;98.00;;;;;;5013769;28;20030;-36
2023/10/08 11:54:05;;;;;;;4.35;2.60;;;19.10;98.00;;;;;;5013680;28;20112;-35
2023/10/08 11:56:33;;;;;;;4.88;2.50;;;19.10;98.00;;;;;;5013393;28;20104;-35
2023/10/08 11:59:05;;;;;;;4.68;2.50;;;19.10;98.30;;;;;;5013342;28;20080;-36
2023/10/08 12:01:35;;;;;;;7.60;2.58;;;19.10;98.00;;;;;;5013454;28;20029;-36
2023/10/08 12:04:01;;;;;;;7.13;2.30;;;19.10;98.00;;;;;;5013362;28;20527;-38
2023/10/08 12:06:29;;;;;;;7.22;2.65;;;19.10;98.00;;;;;;5013627;28;20033;-36
2023/10/08 12:08:58;;;;;;;4.00;2.42;;;19.10;98.00;;;;;;5013470;28;20030;-35
2023/10/08 12:11:31;;;;;;;7.68;2.63;;;19.10;98.10;;;;;;5011897;28;20018;-36
2023/10/08 12:14:00;;;;;;;5.47;2.50;;;19.20;98.10;;;;;;5013295;28;20026;-33
2023/10/08 12:16:29;;;;;;;8.55;2.90;;;19.10;98.00;;;;;;5013053;28;20057;-34
2023/10/08 12:18:59;;;;;;;4.90;2.28;;;19.20;98.00;;;;;;5013028;28;20159;-34
2023/10/08 12:21:31;;;;;;;5.13;2.38;;;19.20;98.00;;;;;;5013133;28;20037;-34
2023/10/08 12:24:05;;;;;;;5.80;2.92;;;19.20;98.00;;;;;;5012970;28;20075;-37
2023/10/08 12:26:31;;;;;;;5.13;2.60;;;19.20;98.00;;;;;;5012991;28;20014;-37
2023/10/08 12:28:57;;;;;;;5.55;2.60;;;19.20;98.10;;;;;;5012982;28;20139;-34
2023/10/08 12:31:24;;;;;;;6.88;2.60;;;19.20;98.00;;;;;;5012876;28;20471;-34
2023/10/08 12:33:53;;;;;;;5.22;2.50;;;19.20;98.00;;;;;;5012911;28;20098;-37
2023/10/08 12:36:22;;;;;;;5.43;2.50;;;19.20;98.00;;;;;;5012669;28;20033;-36
2023/10/08 12:38:49;;;;;;;7.20;2.70;;;19.30;98.10;;;;;;5012986;28;20480;-41
2023/10/08 12:41:18;;;;;;;5.82;2.60;;;19.20;98.00;;;;;;5012795;28;20030;-37
2023/10/08 12:43:45;;;;;;;5.15;2.30;;;19.20;98.00;;;;;;5012663;28;20022;-36
2023/10/08 12:46:18;;;;;;;5.68;2.50;;;19.20;98.00;;;;;;5012057;28;20482;-37
2023/10/08 12:48:47;;;;;;;7.63;2.42;;;19.30;98.10;;;;;;5012737;28;20028;-37
2023/10/08 12:51:14;;;;;;;6.78;2.50;;;19.30;98.10;;;;;;5012562;28;20026;-37
2023/10/08 12:53:41;;;;;;;6.32;2.30;;;19.30;98.10;;;;;;5012630;28;20111;-36
2023/10/08 12:56:14;;;;;;;6.18;2.63;;;19.30;98.40;;;;;;5012288;28;20062;-37
2023/10/08 12:58:41;;;;;;;9.52;2.50;;;19.30;98.10;;;;;;5012427;28;20394;-36
2023/10/08 13:01:14;;;;;;;8.32;2.78;;;19.30;98.10;;;;;;5012385;28;20026;-37
2023/10/08 13:03:47;;;;;;;8.70;2.60;;;19.30;98.10;;;;;;5012212;28;20456;-36
2023/10/08 13:06:28;;;;;;;7.80;2.42;;;19.30;98.00;;;;;;5012335;28;20386;-36
2023/10/08 13:08:54;;;;;;;4.80;2.17;;;19.30;98.10;;;;;;5012236;28;20484;-37
2023/10/08 13:11:24;;;;;;;7.45;2.92;;;19.30;98.00;;;;;;5012156;28;20560;-36
2023/10/08 13:13:52;;;;;;;7.00;2.28;;;19.30;98.00;;;;;;5012173;28;20026;-36
2023/10/08 13:16:23;;;;;;;4.78;2.42;;;19.30;98.00;;;;;;5011924;28;20117;-40
2023/10/08 13:18:49;;;;;;;6.35;2.28;;;19.30;98.00;;;;;;5011975;28;20037;-36
2023/10/08 13:21:16;;;;;;;9.30;2.92;;;19.30;98.00;;;;;;5012027;28;20562;-36
2023/10/08 13:23:42;;;;;;;7.88;2.40;;;19.30;98.00;;;;;;5011962;28;20487;-34
2023/10/08 13:26:09;;;;;;;6.35;2.53;;;19.40;98.00;;;;;;5011854;28;20078;-35
2023/10/08 13:28:36;;;;;;;9.50;2.50;;;19.40;98.00;;;;;;5011772;28;20060;-37
2023/10/08 13:31:11;;;;;;;7.45;2.78;;;19.40;98.00;;;;;;5011805;28;20018;-37
2023/10/08 13:33:42;;;;;;;4.55;2.28;;;19.40;98.00;;;;;;5012058;28;20026;-36
2023/10/08 13:36:09;;;;;;;8.02;2.47;;;19.40;98.00;;;;;;5012199;28;20057;-37
2023/10/08 13:38:37;;;;;;;8.48;2.70;;;19.40;97.90;;;;;;5012176;28;20038;-36
2023/10/08 13:41:06;;;;;;;6.85;2.65;;;19.40;97.90;;;;;;5011629;28;20029;-36
2023/10/08 13:43:35;;;;;;;6.25;2.55;;;19.40;97.90;;;;;;5011764;28;20022;-37
2023/10/08 13:46:06;;;;;;;7.75;2.60;;;19.40;97.90;;;;;;5011554;28;20029;-38
2023/10/08 13:48:34;;;;;;;6.45;2.70;;;19.40;97.90;;;;;;5011683;28;20018;-37
2023/10/08 13:51:04;;;;;;;4.18;2.15;;;19.40;97.90;;;;;;5011674;28;20018;-37
2023/10/08 13:53:33;;;;;;;7.10;2.47;;;19.40;97.90;;;;;;5012006;28;20075;-36
2023/10/08 13:56:00;;;;;;;7.10;2.40;;;19.40;97.90;;;;;;5011412;28;20029;-35
2023/10/08 13:58:29;;;;;;;5.60;2.50;;;19.40;97.90;;;;;;5009404;28;20073;-38
2023/10/08 14:00:56;;;;;;;12.85;3.00;;;19.40;97.90;;;;;;5011526;28;20361;-34
2023/10/08 14:03:21;;;;;;;10.02;2.40;;;19.40;97.90;;;;;;5011450;28;20037;-36
2023/10/08 14:05:50;;;;;;;9.93;2.00;;;19.40;97.90;;;;;;5011329;28;20515;-36
2023/10/08 14:08:17;;;;;;;7.72;2.65;;;19.40;97.90;;;;;;5011309;28;20549;-39
2023/10/08 14:10:44;;;;;;;5.72;2.33;;;19.40;97.90;;;;;;5011406;28;20022;-41
2023/10/08 14:13:10;;;;;;;6.90;2.60;;;19.40;97.90;;;;;;5011672;28;20022;-37
2023/10/08 14:15:43;;;;;;;8.65;2.60;;;19.40;97.90;;;;;;5011670;28;20663;-37